<?xml version="1.0" encoding="UTF-8" standalone="no" ?>
<gpx xmlns="http://www.topografix.com/GPX/1/1" xmlns:xsi="http://www.w3.org/2001/XMLSchema-instance" xsi:schemaLocation="http://www.topografix.com/GPX/1/1 http://www.topografix.com/GPX/1/1/gpx.xsd" version="1.1" creator="VisuGPX - https://www.visugpx.com">
  <metadata>
    <name>RSPFY-Rochers d'Angennes</name>
    <desc><![CDATA[Marche nordique au départ du parking des Rochers d'Angennes près de Poigny-La-Forêt.
Parcours très sablonneux !]]></desc>
  </metadata>
  <trk>
    <name><![CDATA[2020-08-06 09:00]]></name>
    <desc><![CDATA[<p>Heure de départ: 09:01 6 août 2020<br/>Heure d'arrivée: 11:18 6 août 2020<br/>Distance: 11,4 km (02:17)<br/>Temps déplacement: 02:05<br/>Vitesse moyenne: 4,95 km/h<br/>Vitesse moyenne mouv.: 5,44 km/h<br/>Vitesse Max.: 7,83 km/h<br/>Altitude minimale: 136 m<br/>Altitude maximale: 202 m<br/>Vitesse de montée: 363,4 m/h<br/>Vitesse de descente: -332,3 m/h<br/>Gain d'altitude: 392 m<br/>Perte d'altitude: -390 m<br/>Temps de montée: 01:04<br/>Temps de descente: 01:10<br/></p><hr align="center" width="480" style="height: 2px; width: 517px"/>]]></desc>
    <trkseg>
      <trkpt lat="48.67255" lon="1.73796">
        <ele>150</ele>
        <time>2020-08-06T07:01:16Z</time>
      </trkpt>
      <trkpt lat="48.67254" lon="1.73769">
        <ele>151</ele>
        <time>2020-08-06T07:02:45Z</time>
      </trkpt>
      <trkpt lat="48.67251" lon="1.73741">
        <ele>152</ele>
        <time>2020-08-06T07:03:06Z</time>
      </trkpt>
      <trkpt lat="48.67253" lon="1.73714">
        <ele>151</ele>
        <time>2020-08-06T07:03:25Z</time>
      </trkpt>
      <trkpt lat="48.67255" lon="1.73686">
        <ele>151</ele>
        <time>2020-08-06T07:03:40Z</time>
      </trkpt>
      <trkpt lat="48.67254" lon="1.73657">
        <ele>152</ele>
        <time>2020-08-06T07:03:54Z</time>
      </trkpt>
      <trkpt lat="48.67244" lon="1.73632">
        <ele>157</ele>
        <time>2020-08-06T07:04:20Z</time>
      </trkpt>
      <trkpt lat="48.67238" lon="1.73606">
        <ele>156</ele>
        <time>2020-08-06T07:04:35Z</time>
      </trkpt>
      <trkpt lat="48.67236" lon="1.73578">
        <ele>152</ele>
        <time>2020-08-06T07:04:50Z</time>
      </trkpt>
      <trkpt lat="48.67233" lon="1.73551">
        <ele>154</ele>
        <time>2020-08-06T07:05:01Z</time>
      </trkpt>
      <trkpt lat="48.67225" lon="1.73525">
        <ele>154</ele>
        <time>2020-08-06T07:05:14Z</time>
      </trkpt>
      <trkpt lat="48.67214" lon="1.73502">
        <ele>154</ele>
        <time>2020-08-06T07:05:26Z</time>
      </trkpt>
      <trkpt lat="48.67208" lon="1.73474">
        <ele>152</ele>
        <time>2020-08-06T07:05:39Z</time>
      </trkpt>
      <trkpt lat="48.672" lon="1.73448">
        <ele>151</ele>
        <time>2020-08-06T07:05:52Z</time>
      </trkpt>
      <trkpt lat="48.67192" lon="1.73422">
        <ele>151</ele>
        <time>2020-08-06T07:06:05Z</time>
      </trkpt>
      <trkpt lat="48.67181" lon="1.73399">
        <ele>148</ele>
        <time>2020-08-06T07:06:18Z</time>
      </trkpt>
      <trkpt lat="48.67167" lon="1.73377">
        <ele>148</ele>
        <time>2020-08-06T07:06:32Z</time>
      </trkpt>
      <trkpt lat="48.67153" lon="1.7336">
        <ele>149</ele>
        <time>2020-08-06T07:06:45Z</time>
      </trkpt>
      <trkpt lat="48.67137" lon="1.73346">
        <ele>149</ele>
        <time>2020-08-06T07:06:58Z</time>
      </trkpt>
      <trkpt lat="48.67121" lon="1.73332">
        <ele>146</ele>
        <time>2020-08-06T07:07:11Z</time>
      </trkpt>
      <trkpt lat="48.67103" lon="1.73319">
        <ele>147</ele>
        <time>2020-08-06T07:07:27Z</time>
      </trkpt>
      <trkpt lat="48.67086" lon="1.73313">
        <ele>147</ele>
        <time>2020-08-06T07:07:38Z</time>
      </trkpt>
      <trkpt lat="48.67068" lon="1.7332">
        <ele>146</ele>
        <time>2020-08-06T07:07:49Z</time>
      </trkpt>
      <trkpt lat="48.6705" lon="1.73332">
        <ele>146</ele>
        <time>2020-08-06T07:08:01Z</time>
      </trkpt>
      <trkpt lat="48.67038" lon="1.73352">
        <ele>150</ele>
        <time>2020-08-06T07:08:14Z</time>
      </trkpt>
      <trkpt lat="48.67024" lon="1.7337">
        <ele>151</ele>
        <time>2020-08-06T07:08:27Z</time>
      </trkpt>
      <trkpt lat="48.67007" lon="1.73382">
        <ele>151</ele>
        <time>2020-08-06T07:08:43Z</time>
      </trkpt>
      <trkpt lat="48.66988" lon="1.73377">
        <ele>149</ele>
        <time>2020-08-06T07:09:00Z</time>
      </trkpt>
      <trkpt lat="48.6697" lon="1.73373">
        <ele>149</ele>
        <time>2020-08-06T07:09:12Z</time>
      </trkpt>
      <trkpt lat="48.6695" lon="1.73377">
        <ele>149</ele>
        <time>2020-08-06T07:09:33Z</time>
      </trkpt>
      <trkpt lat="48.66932" lon="1.73382">
        <ele>149</ele>
        <time>2020-08-06T07:09:45Z</time>
      </trkpt>
      <trkpt lat="48.66915" lon="1.73395">
        <ele>151</ele>
        <time>2020-08-06T07:10:00Z</time>
      </trkpt>
      <trkpt lat="48.66898" lon="1.73405">
        <ele>152</ele>
        <time>2020-08-06T07:10:14Z</time>
      </trkpt>
      <trkpt lat="48.66881" lon="1.73416">
        <ele>152</ele>
        <time>2020-08-06T07:10:29Z</time>
      </trkpt>
      <trkpt lat="48.66868" lon="1.73436">
        <ele>156</ele>
        <time>2020-08-06T07:10:43Z</time>
      </trkpt>
      <trkpt lat="48.66853" lon="1.73453">
        <ele>157</ele>
        <time>2020-08-06T07:10:58Z</time>
      </trkpt>
      <trkpt lat="48.66837" lon="1.73467">
        <ele>157</ele>
        <time>2020-08-06T07:11:17Z</time>
      </trkpt>
      <trkpt lat="48.66823" lon="1.73484">
        <ele>159</ele>
        <time>2020-08-06T07:11:31Z</time>
      </trkpt>
      <trkpt lat="48.6681" lon="1.73504">
        <ele>162</ele>
        <time>2020-08-06T07:11:45Z</time>
      </trkpt>
      <trkpt lat="48.66805" lon="1.73531">
        <ele>163</ele>
        <time>2020-08-06T07:12:01Z</time>
      </trkpt>
      <trkpt lat="48.66807" lon="1.7356">
        <ele>163</ele>
        <time>2020-08-06T07:12:17Z</time>
      </trkpt>
      <trkpt lat="48.66809" lon="1.73587">
        <ele>165</ele>
        <time>2020-08-06T07:12:30Z</time>
      </trkpt>
      <trkpt lat="48.66809" lon="1.73614">
        <ele>166</ele>
        <time>2020-08-06T07:12:44Z</time>
      </trkpt>
      <trkpt lat="48.66806" lon="1.73642">
        <ele>167</ele>
        <time>2020-08-06T07:13:03Z</time>
      </trkpt>
      <trkpt lat="48.66805" lon="1.7367">
        <ele>169</ele>
        <time>2020-08-06T07:13:17Z</time>
      </trkpt>
      <trkpt lat="48.66805" lon="1.73698">
        <ele>170</ele>
        <time>2020-08-06T07:13:30Z</time>
      </trkpt>
      <trkpt lat="48.66804" lon="1.73726">
        <ele>171</ele>
        <time>2020-08-06T07:13:42Z</time>
      </trkpt>
      <trkpt lat="48.66798" lon="1.73753">
        <ele>173</ele>
        <time>2020-08-06T07:13:55Z</time>
      </trkpt>
      <trkpt lat="48.66786" lon="1.73774">
        <ele>174</ele>
        <time>2020-08-06T07:14:12Z</time>
      </trkpt>
      <trkpt lat="48.66772" lon="1.73793">
        <ele>175</ele>
        <time>2020-08-06T07:15:44Z</time>
      </trkpt>
      <trkpt lat="48.6676" lon="1.73814">
        <ele>175</ele>
        <time>2020-08-06T07:16:04Z</time>
      </trkpt>
      <trkpt lat="48.66745" lon="1.73832">
        <ele>176</ele>
        <time>2020-08-06T07:16:18Z</time>
      </trkpt>
      <trkpt lat="48.66731" lon="1.73851">
        <ele>175</ele>
        <time>2020-08-06T07:16:29Z</time>
      </trkpt>
      <trkpt lat="48.66715" lon="1.73865">
        <ele>175</ele>
        <time>2020-08-06T07:16:40Z</time>
      </trkpt>
      <trkpt lat="48.66699" lon="1.73878">
        <ele>175</ele>
        <time>2020-08-06T07:16:51Z</time>
      </trkpt>
      <trkpt lat="48.66684" lon="1.73897">
        <ele>175</ele>
        <time>2020-08-06T07:17:04Z</time>
      </trkpt>
      <trkpt lat="48.66672" lon="1.73917">
        <ele>175</ele>
        <time>2020-08-06T07:17:17Z</time>
      </trkpt>
      <trkpt lat="48.66662" lon="1.7394">
        <ele>173</ele>
        <time>2020-08-06T07:17:29Z</time>
      </trkpt>
      <trkpt lat="48.66645" lon="1.73952">
        <ele>173</ele>
        <time>2020-08-06T07:17:42Z</time>
      </trkpt>
      <trkpt lat="48.66631" lon="1.73969">
        <ele>172</ele>
        <time>2020-08-06T07:17:52Z</time>
      </trkpt>
      <trkpt lat="48.66617" lon="1.73987">
        <ele>172</ele>
        <time>2020-08-06T07:18:02Z</time>
      </trkpt>
      <trkpt lat="48.66605" lon="1.74007">
        <ele>171</ele>
        <time>2020-08-06T07:18:14Z</time>
      </trkpt>
      <trkpt lat="48.66587" lon="1.74017">
        <ele>171</ele>
        <time>2020-08-06T07:18:28Z</time>
      </trkpt>
      <trkpt lat="48.66576" lon="1.7404">
        <ele>171</ele>
        <time>2020-08-06T07:18:40Z</time>
      </trkpt>
      <trkpt lat="48.66563" lon="1.74061">
        <ele>170</ele>
        <time>2020-08-06T07:18:53Z</time>
      </trkpt>
      <trkpt lat="48.66548" lon="1.74078">
        <ele>170</ele>
        <time>2020-08-06T07:19:06Z</time>
      </trkpt>
      <trkpt lat="48.66532" lon="1.74093">
        <ele>170</ele>
        <time>2020-08-06T07:19:19Z</time>
      </trkpt>
      <trkpt lat="48.66515" lon="1.74108">
        <ele>170</ele>
        <time>2020-08-06T07:19:30Z</time>
      </trkpt>
      <trkpt lat="48.66499" lon="1.74122">
        <ele>171</ele>
        <time>2020-08-06T07:19:40Z</time>
      </trkpt>
      <trkpt lat="48.66485" lon="1.7414">
        <ele>171</ele>
        <time>2020-08-06T07:19:54Z</time>
      </trkpt>
      <trkpt lat="48.66471" lon="1.74159">
        <ele>171</ele>
        <time>2020-08-06T07:20:08Z</time>
      </trkpt>
      <trkpt lat="48.66457" lon="1.74177">
        <ele>171</ele>
        <time>2020-08-06T07:20:22Z</time>
      </trkpt>
      <trkpt lat="48.66443" lon="1.74196">
        <ele>171</ele>
        <time>2020-08-06T07:20:35Z</time>
      </trkpt>
      <trkpt lat="48.66426" lon="1.74209">
        <ele>171</ele>
        <time>2020-08-06T07:20:45Z</time>
      </trkpt>
      <trkpt lat="48.6641" lon="1.74223">
        <ele>172</ele>
        <time>2020-08-06T07:20:54Z</time>
      </trkpt>
      <trkpt lat="48.66398" lon="1.74245">
        <ele>172</ele>
        <time>2020-08-06T07:21:06Z</time>
      </trkpt>
      <trkpt lat="48.66384" lon="1.74265">
        <ele>172</ele>
        <time>2020-08-06T07:21:20Z</time>
      </trkpt>
      <trkpt lat="48.66367" lon="1.74275">
        <ele>172</ele>
        <time>2020-08-06T07:21:30Z</time>
      </trkpt>
      <trkpt lat="48.66353" lon="1.74295">
        <ele>172</ele>
        <time>2020-08-06T07:21:42Z</time>
      </trkpt>
      <trkpt lat="48.66338" lon="1.74312">
        <ele>172</ele>
        <time>2020-08-06T07:21:54Z</time>
      </trkpt>
      <trkpt lat="48.66324" lon="1.74331">
        <ele>174</ele>
        <time>2020-08-06T07:22:09Z</time>
      </trkpt>
      <trkpt lat="48.66315" lon="1.74307">
        <ele>175</ele>
        <time>2020-08-06T07:22:40Z</time>
      </trkpt>
      <trkpt lat="48.66315" lon="1.74279">
        <ele>176</ele>
        <time>2020-08-06T07:22:56Z</time>
      </trkpt>
      <trkpt lat="48.66316" lon="1.74251">
        <ele>176</ele>
        <time>2020-08-06T07:23:13Z</time>
      </trkpt>
      <trkpt lat="48.66315" lon="1.74222">
        <ele>175</ele>
        <time>2020-08-06T07:23:31Z</time>
      </trkpt>
      <trkpt lat="48.66315" lon="1.74193">
        <ele>175</ele>
        <time>2020-08-06T07:23:44Z</time>
      </trkpt>
      <trkpt lat="48.66318" lon="1.74165">
        <ele>173</ele>
        <time>2020-08-06T07:23:58Z</time>
      </trkpt>
      <trkpt lat="48.66315" lon="1.74137">
        <ele>172</ele>
        <time>2020-08-06T07:24:11Z</time>
      </trkpt>
      <trkpt lat="48.66319" lon="1.74109">
        <ele>171</ele>
        <time>2020-08-06T07:24:26Z</time>
      </trkpt>
      <trkpt lat="48.66319" lon="1.74081">
        <ele>169</ele>
        <time>2020-08-06T07:24:39Z</time>
      </trkpt>
      <trkpt lat="48.66316" lon="1.74054">
        <ele>169</ele>
        <time>2020-08-06T07:24:55Z</time>
      </trkpt>
      <trkpt lat="48.66298" lon="1.74046">
        <ele>169</ele>
        <time>2020-08-06T07:25:15Z</time>
      </trkpt>
      <trkpt lat="48.66281" lon="1.74035">
        <ele>169</ele>
        <time>2020-08-06T07:25:38Z</time>
      </trkpt>
      <trkpt lat="48.66263" lon="1.74027">
        <ele>169</ele>
        <time>2020-08-06T07:25:53Z</time>
      </trkpt>
      <trkpt lat="48.66244" lon="1.74018">
        <ele>171</ele>
        <time>2020-08-06T07:26:08Z</time>
      </trkpt>
      <trkpt lat="48.66226" lon="1.74011">
        <ele>172</ele>
        <time>2020-08-06T07:26:24Z</time>
      </trkpt>
      <trkpt lat="48.66208" lon="1.74019">
        <ele>172</ele>
        <time>2020-08-06T07:26:38Z</time>
      </trkpt>
      <trkpt lat="48.66189" lon="1.74023">
        <ele>173</ele>
        <time>2020-08-06T07:26:49Z</time>
      </trkpt>
      <trkpt lat="48.66175" lon="1.7404">
        <ele>173</ele>
        <time>2020-08-06T07:26:59Z</time>
      </trkpt>
      <trkpt lat="48.66162" lon="1.74061">
        <ele>173</ele>
        <time>2020-08-06T07:27:11Z</time>
      </trkpt>
      <trkpt lat="48.6615" lon="1.74082">
        <ele>173</ele>
        <time>2020-08-06T07:27:25Z</time>
      </trkpt>
      <trkpt lat="48.66136" lon="1.74101">
        <ele>172</ele>
        <time>2020-08-06T07:27:38Z</time>
      </trkpt>
      <trkpt lat="48.66123" lon="1.74121">
        <ele>172</ele>
        <time>2020-08-06T07:27:52Z</time>
      </trkpt>
      <trkpt lat="48.66111" lon="1.74142">
        <ele>171</ele>
        <time>2020-08-06T07:28:05Z</time>
      </trkpt>
      <trkpt lat="48.661" lon="1.74165">
        <ele>171</ele>
        <time>2020-08-06T07:28:19Z</time>
      </trkpt>
      <trkpt lat="48.66093" lon="1.7419">
        <ele>171</ele>
        <time>2020-08-06T07:28:42Z</time>
      </trkpt>
      <trkpt lat="48.66079" lon="1.74211">
        <ele>168</ele>
        <time>2020-08-06T07:28:57Z</time>
      </trkpt>
      <trkpt lat="48.66069" lon="1.74233">
        <ele>169</ele>
        <time>2020-08-06T07:29:10Z</time>
      </trkpt>
      <trkpt lat="48.66056" lon="1.74254">
        <ele>169</ele>
        <time>2020-08-06T07:29:22Z</time>
      </trkpt>
      <trkpt lat="48.66046" lon="1.74277">
        <ele>169</ele>
        <time>2020-08-06T07:29:33Z</time>
      </trkpt>
      <trkpt lat="48.66034" lon="1.74298">
        <ele>169</ele>
        <time>2020-08-06T07:29:46Z</time>
      </trkpt>
      <trkpt lat="48.66028" lon="1.74326">
        <ele>169</ele>
        <time>2020-08-06T07:29:59Z</time>
      </trkpt>
      <trkpt lat="48.66016" lon="1.74348">
        <ele>170</ele>
        <time>2020-08-06T07:30:12Z</time>
      </trkpt>
      <trkpt lat="48.66003" lon="1.74369">
        <ele>170</ele>
        <time>2020-08-06T07:30:25Z</time>
      </trkpt>
      <trkpt lat="48.65987" lon="1.74381">
        <ele>171</ele>
        <time>2020-08-06T07:30:40Z</time>
      </trkpt>
      <trkpt lat="48.65971" lon="1.74395">
        <ele>171</ele>
        <time>2020-08-06T07:30:55Z</time>
      </trkpt>
      <trkpt lat="48.65953" lon="1.74404">
        <ele>172</ele>
        <time>2020-08-06T07:31:08Z</time>
      </trkpt>
      <trkpt lat="48.65935" lon="1.7441">
        <ele>172</ele>
        <time>2020-08-06T07:31:19Z</time>
      </trkpt>
      <trkpt lat="48.65918" lon="1.74419">
        <ele>173</ele>
        <time>2020-08-06T07:31:30Z</time>
      </trkpt>
      <trkpt lat="48.659" lon="1.74425">
        <ele>173</ele>
        <time>2020-08-06T07:31:40Z</time>
      </trkpt>
      <trkpt lat="48.65882" lon="1.74431">
        <ele>172</ele>
        <time>2020-08-06T07:31:51Z</time>
      </trkpt>
      <trkpt lat="48.65864" lon="1.74438">
        <ele>172</ele>
        <time>2020-08-06T07:32:04Z</time>
      </trkpt>
      <trkpt lat="48.65846" lon="1.74445">
        <ele>172</ele>
        <time>2020-08-06T07:32:18Z</time>
      </trkpt>
      <trkpt lat="48.65828" lon="1.74448">
        <ele>170</ele>
        <time>2020-08-06T07:32:31Z</time>
      </trkpt>
      <trkpt lat="48.6581" lon="1.74452">
        <ele>170</ele>
        <time>2020-08-06T07:32:45Z</time>
      </trkpt>
      <trkpt lat="48.65791" lon="1.74458">
        <ele>170</ele>
        <time>2020-08-06T07:32:59Z</time>
      </trkpt>
      <trkpt lat="48.65773" lon="1.74468">
        <ele>170</ele>
        <time>2020-08-06T07:33:12Z</time>
      </trkpt>
      <trkpt lat="48.65755" lon="1.74476">
        <ele>170</ele>
        <time>2020-08-06T07:33:23Z</time>
      </trkpt>
      <trkpt lat="48.65736" lon="1.74482">
        <ele>169</ele>
        <time>2020-08-06T07:33:36Z</time>
      </trkpt>
      <trkpt lat="48.65719" lon="1.74487">
        <ele>169</ele>
        <time>2020-08-06T07:33:48Z</time>
      </trkpt>
      <trkpt lat="48.65701" lon="1.74495">
        <ele>169</ele>
        <time>2020-08-06T07:34:02Z</time>
      </trkpt>
      <trkpt lat="48.65683" lon="1.74501">
        <ele>170</ele>
        <time>2020-08-06T07:34:15Z</time>
      </trkpt>
      <trkpt lat="48.65664" lon="1.74507">
        <ele>170</ele>
        <time>2020-08-06T07:34:28Z</time>
      </trkpt>
      <trkpt lat="48.65645" lon="1.74512">
        <ele>171</ele>
        <time>2020-08-06T07:34:40Z</time>
      </trkpt>
      <trkpt lat="48.65627" lon="1.74517">
        <ele>171</ele>
        <time>2020-08-06T07:34:52Z</time>
      </trkpt>
      <trkpt lat="48.65609" lon="1.74526">
        <ele>171</ele>
        <time>2020-08-06T07:35:03Z</time>
      </trkpt>
      <trkpt lat="48.65591" lon="1.74534">
        <ele>171</ele>
        <time>2020-08-06T07:35:15Z</time>
      </trkpt>
      <trkpt lat="48.65571" lon="1.74537">
        <ele>172</ele>
        <time>2020-08-06T07:35:27Z</time>
      </trkpt>
      <trkpt lat="48.65555" lon="1.74549">
        <ele>173</ele>
        <time>2020-08-06T07:35:42Z</time>
      </trkpt>
      <trkpt lat="48.65537" lon="1.74561">
        <ele>173</ele>
        <time>2020-08-06T07:35:58Z</time>
      </trkpt>
      <trkpt lat="48.65518" lon="1.7456">
        <ele>173</ele>
        <time>2020-08-06T07:36:24Z</time>
      </trkpt>
      <trkpt lat="48.65525" lon="1.74535">
        <ele>173</ele>
        <time>2020-08-06T07:36:56Z</time>
      </trkpt>
      <trkpt lat="48.65534" lon="1.74509">
        <ele>173</ele>
        <time>2020-08-06T07:37:13Z</time>
      </trkpt>
      <trkpt lat="48.65544" lon="1.74486">
        <ele>172</ele>
        <time>2020-08-06T07:37:27Z</time>
      </trkpt>
      <trkpt lat="48.65557" lon="1.74464">
        <ele>172</ele>
        <time>2020-08-06T07:37:43Z</time>
      </trkpt>
      <trkpt lat="48.65565" lon="1.74439">
        <ele>172</ele>
        <time>2020-08-06T07:37:56Z</time>
      </trkpt>
      <trkpt lat="48.65575" lon="1.74416">
        <ele>172</ele>
        <time>2020-08-06T07:38:09Z</time>
      </trkpt>
      <trkpt lat="48.65583" lon="1.74391">
        <ele>172</ele>
        <time>2020-08-06T07:38:21Z</time>
      </trkpt>
      <trkpt lat="48.65593" lon="1.74368">
        <ele>171</ele>
        <time>2020-08-06T07:38:34Z</time>
      </trkpt>
      <trkpt lat="48.65602" lon="1.74344">
        <ele>171</ele>
        <time>2020-08-06T07:38:47Z</time>
      </trkpt>
      <trkpt lat="48.65614" lon="1.74321">
        <ele>171</ele>
        <time>2020-08-06T07:38:58Z</time>
      </trkpt>
      <trkpt lat="48.65621" lon="1.74296">
        <ele>171</ele>
        <time>2020-08-06T07:39:10Z</time>
      </trkpt>
      <trkpt lat="48.65633" lon="1.74273">
        <ele>171</ele>
        <time>2020-08-06T07:39:24Z</time>
      </trkpt>
      <trkpt lat="48.65641" lon="1.74246">
        <ele>172</ele>
        <time>2020-08-06T07:39:37Z</time>
      </trkpt>
      <trkpt lat="48.65652" lon="1.74222">
        <ele>172</ele>
        <time>2020-08-06T07:39:49Z</time>
      </trkpt>
      <trkpt lat="48.65664" lon="1.742">
        <ele>172</ele>
        <time>2020-08-06T07:40:02Z</time>
      </trkpt>
      <trkpt lat="48.65672" lon="1.74174">
        <ele>171</ele>
        <time>2020-08-06T07:40:15Z</time>
      </trkpt>
      <trkpt lat="48.65681" lon="1.7415">
        <ele>171</ele>
        <time>2020-08-06T07:40:29Z</time>
      </trkpt>
      <trkpt lat="48.65691" lon="1.74124">
        <ele>171</ele>
        <time>2020-08-06T07:40:41Z</time>
      </trkpt>
      <trkpt lat="48.65702" lon="1.74101">
        <ele>171</ele>
        <time>2020-08-06T07:40:53Z</time>
      </trkpt>
      <trkpt lat="48.65708" lon="1.74074">
        <ele>172</ele>
        <time>2020-08-06T07:41:07Z</time>
      </trkpt>
      <trkpt lat="48.65712" lon="1.74046">
        <ele>172</ele>
        <time>2020-08-06T07:41:21Z</time>
      </trkpt>
      <trkpt lat="48.65716" lon="1.74018">
        <ele>173</ele>
        <time>2020-08-06T07:41:39Z</time>
      </trkpt>
      <trkpt lat="48.65726" lon="1.73995">
        <ele>173</ele>
        <time>2020-08-06T07:41:52Z</time>
      </trkpt>
      <trkpt lat="48.65731" lon="1.73968">
        <ele>173</ele>
        <time>2020-08-06T07:42:09Z</time>
      </trkpt>
      <trkpt lat="48.65737" lon="1.73942">
        <ele>173</ele>
        <time>2020-08-06T07:42:22Z</time>
      </trkpt>
      <trkpt lat="48.65744" lon="1.73915">
        <ele>173</ele>
        <time>2020-08-06T07:42:36Z</time>
      </trkpt>
      <trkpt lat="48.65753" lon="1.7389">
        <ele>171</ele>
        <time>2020-08-06T07:42:53Z</time>
      </trkpt>
      <trkpt lat="48.65763" lon="1.73867">
        <ele>171</ele>
        <time>2020-08-06T07:43:06Z</time>
      </trkpt>
      <trkpt lat="48.65776" lon="1.73846">
        <ele>172</ele>
        <time>2020-08-06T07:43:19Z</time>
      </trkpt>
      <trkpt lat="48.65789" lon="1.73824">
        <ele>173</ele>
        <time>2020-08-06T07:43:36Z</time>
      </trkpt>
      <trkpt lat="48.65803" lon="1.73806">
        <ele>172</ele>
        <time>2020-08-06T07:43:51Z</time>
      </trkpt>
      <trkpt lat="48.65817" lon="1.73788">
        <ele>173</ele>
        <time>2020-08-06T07:44:04Z</time>
      </trkpt>
      <trkpt lat="48.65833" lon="1.73771">
        <ele>174</ele>
        <time>2020-08-06T07:44:17Z</time>
      </trkpt>
      <trkpt lat="48.65849" lon="1.73754">
        <ele>175</ele>
        <time>2020-08-06T07:44:27Z</time>
      </trkpt>
      <trkpt lat="48.65865" lon="1.73737">
        <ele>176</ele>
        <time>2020-08-06T07:44:41Z</time>
      </trkpt>
      <trkpt lat="48.65883" lon="1.73728">
        <ele>176</ele>
        <time>2020-08-06T07:44:57Z</time>
      </trkpt>
      <trkpt lat="48.65901" lon="1.73722">
        <ele>176</ele>
        <time>2020-08-06T07:45:15Z</time>
      </trkpt>
      <trkpt lat="48.6592" lon="1.73718">
        <ele>176</ele>
        <time>2020-08-06T07:45:30Z</time>
      </trkpt>
      <trkpt lat="48.65938" lon="1.73717">
        <ele>176</ele>
        <time>2020-08-06T07:45:44Z</time>
      </trkpt>
      <trkpt lat="48.65957" lon="1.7371">
        <ele>176</ele>
        <time>2020-08-06T07:45:57Z</time>
      </trkpt>
      <trkpt lat="48.65975" lon="1.73708">
        <ele>176</ele>
        <time>2020-08-06T07:46:12Z</time>
      </trkpt>
      <trkpt lat="48.65994" lon="1.73702">
        <ele>175</ele>
        <time>2020-08-06T07:46:24Z</time>
      </trkpt>
      <trkpt lat="48.66011" lon="1.73692">
        <ele>175</ele>
        <time>2020-08-06T07:46:38Z</time>
      </trkpt>
      <trkpt lat="48.66026" lon="1.73675">
        <ele>175</ele>
        <time>2020-08-06T07:46:56Z</time>
      </trkpt>
      <trkpt lat="48.66034" lon="1.7365">
        <ele>174</ele>
        <time>2020-08-06T07:47:11Z</time>
      </trkpt>
      <trkpt lat="48.6604" lon="1.73622">
        <ele>174</ele>
        <time>2020-08-06T07:47:22Z</time>
      </trkpt>
      <trkpt lat="48.66042" lon="1.73594">
        <ele>173</ele>
        <time>2020-08-06T07:47:36Z</time>
      </trkpt>
      <trkpt lat="48.66039" lon="1.73566">
        <ele>172</ele>
        <time>2020-08-06T07:47:49Z</time>
      </trkpt>
      <trkpt lat="48.66042" lon="1.73539">
        <ele>173</ele>
        <time>2020-08-06T07:49:04Z</time>
      </trkpt>
      <trkpt lat="48.66026" lon="1.73528">
        <ele>172</ele>
        <time>2020-08-06T07:50:03Z</time>
      </trkpt>
      <trkpt lat="48.6601" lon="1.73514">
        <ele>172</ele>
        <time>2020-08-06T07:50:21Z</time>
      </trkpt>
      <trkpt lat="48.65999" lon="1.73491">
        <ele>172</ele>
        <time>2020-08-06T07:50:34Z</time>
      </trkpt>
      <trkpt lat="48.65992" lon="1.73465">
        <ele>172</ele>
        <time>2020-08-06T07:50:47Z</time>
      </trkpt>
      <trkpt lat="48.65985" lon="1.73439">
        <ele>172</ele>
        <time>2020-08-06T07:51:04Z</time>
      </trkpt>
      <trkpt lat="48.65973" lon="1.73416">
        <ele>172</ele>
        <time>2020-08-06T07:51:18Z</time>
      </trkpt>
      <trkpt lat="48.65961" lon="1.73395">
        <ele>172</ele>
        <time>2020-08-06T07:51:31Z</time>
      </trkpt>
      <trkpt lat="48.65949" lon="1.73373">
        <ele>172</ele>
        <time>2020-08-06T07:51:43Z</time>
      </trkpt>
      <trkpt lat="48.65937" lon="1.73353">
        <ele>172</ele>
        <time>2020-08-06T07:51:56Z</time>
      </trkpt>
      <trkpt lat="48.65927" lon="1.73328">
        <ele>172</ele>
        <time>2020-08-06T07:52:10Z</time>
      </trkpt>
      <trkpt lat="48.65918" lon="1.73303">
        <ele>172</ele>
        <time>2020-08-06T07:52:24Z</time>
      </trkpt>
      <trkpt lat="48.65916" lon="1.73275">
        <ele>172</ele>
        <time>2020-08-06T07:52:39Z</time>
      </trkpt>
      <trkpt lat="48.65909" lon="1.73248">
        <ele>173</ele>
        <time>2020-08-06T07:52:52Z</time>
      </trkpt>
      <trkpt lat="48.659" lon="1.73225">
        <ele>173</ele>
        <time>2020-08-06T07:53:03Z</time>
      </trkpt>
      <trkpt lat="48.65891" lon="1.732">
        <ele>173</ele>
        <time>2020-08-06T07:53:16Z</time>
      </trkpt>
      <trkpt lat="48.65885" lon="1.73172">
        <ele>173</ele>
        <time>2020-08-06T07:53:29Z</time>
      </trkpt>
      <trkpt lat="48.65879" lon="1.73145">
        <ele>173</ele>
        <time>2020-08-06T07:53:42Z</time>
      </trkpt>
      <trkpt lat="48.65873" lon="1.73119">
        <ele>173</ele>
        <time>2020-08-06T07:53:57Z</time>
      </trkpt>
      <trkpt lat="48.65864" lon="1.73094">
        <ele>174</ele>
        <time>2020-08-06T07:54:10Z</time>
      </trkpt>
      <trkpt lat="48.65855" lon="1.73071">
        <ele>175</ele>
        <time>2020-08-06T07:54:23Z</time>
      </trkpt>
      <trkpt lat="48.65842" lon="1.73049">
        <ele>176</ele>
        <time>2020-08-06T07:54:35Z</time>
      </trkpt>
      <trkpt lat="48.65838" lon="1.73022">
        <ele>177</ele>
        <time>2020-08-06T07:54:48Z</time>
      </trkpt>
      <trkpt lat="48.65836" lon="1.72994">
        <ele>179</ele>
        <time>2020-08-06T07:55:01Z</time>
      </trkpt>
      <trkpt lat="48.65834" lon="1.72967">
        <ele>178</ele>
        <time>2020-08-06T07:55:14Z</time>
      </trkpt>
      <trkpt lat="48.65839" lon="1.7294">
        <ele>178</ele>
        <time>2020-08-06T07:55:28Z</time>
      </trkpt>
      <trkpt lat="48.65845" lon="1.72913">
        <ele>178</ele>
        <time>2020-08-06T07:55:43Z</time>
      </trkpt>
      <trkpt lat="48.65858" lon="1.72891">
        <ele>178</ele>
        <time>2020-08-06T07:55:56Z</time>
      </trkpt>
      <trkpt lat="48.6587" lon="1.72869">
        <ele>178</ele>
        <time>2020-08-06T07:56:09Z</time>
      </trkpt>
      <trkpt lat="48.65882" lon="1.72848">
        <ele>178</ele>
        <time>2020-08-06T07:56:21Z</time>
      </trkpt>
      <trkpt lat="48.65893" lon="1.72824">
        <ele>178</ele>
        <time>2020-08-06T07:56:36Z</time>
      </trkpt>
      <trkpt lat="48.65907" lon="1.72806">
        <ele>178</ele>
        <time>2020-08-06T07:56:50Z</time>
      </trkpt>
      <trkpt lat="48.65921" lon="1.72787">
        <ele>176</ele>
        <time>2020-08-06T07:57:01Z</time>
      </trkpt>
      <trkpt lat="48.65934" lon="1.72767">
        <ele>176</ele>
        <time>2020-08-06T07:57:15Z</time>
      </trkpt>
      <trkpt lat="48.6595" lon="1.72752">
        <ele>175</ele>
        <time>2020-08-06T07:57:28Z</time>
      </trkpt>
      <trkpt lat="48.65961" lon="1.7273">
        <ele>174</ele>
        <time>2020-08-06T07:57:39Z</time>
      </trkpt>
      <trkpt lat="48.65972" lon="1.72705">
        <ele>174</ele>
        <time>2020-08-06T07:57:54Z</time>
      </trkpt>
      <trkpt lat="48.65979" lon="1.7268">
        <ele>173</ele>
        <time>2020-08-06T07:58:10Z</time>
      </trkpt>
      <trkpt lat="48.65986" lon="1.72655">
        <ele>171</ele>
        <time>2020-08-06T07:58:24Z</time>
      </trkpt>
      <trkpt lat="48.65987" lon="1.72627">
        <ele>171</ele>
        <time>2020-08-06T07:58:39Z</time>
      </trkpt>
      <trkpt lat="48.65991" lon="1.726">
        <ele>169</ele>
        <time>2020-08-06T07:58:52Z</time>
      </trkpt>
      <trkpt lat="48.6599" lon="1.72572">
        <ele>167</ele>
        <time>2020-08-06T07:59:04Z</time>
      </trkpt>
      <trkpt lat="48.65991" lon="1.72544">
        <ele>165</ele>
        <time>2020-08-06T07:59:19Z</time>
      </trkpt>
      <trkpt lat="48.65995" lon="1.72516">
        <ele>163</ele>
        <time>2020-08-06T07:59:33Z</time>
      </trkpt>
      <trkpt lat="48.66004" lon="1.72492">
        <ele>161</ele>
        <time>2020-08-06T07:59:47Z</time>
      </trkpt>
      <trkpt lat="48.66016" lon="1.72471">
        <ele>160</ele>
        <time>2020-08-06T08:00:00Z</time>
      </trkpt>
      <trkpt lat="48.66027" lon="1.72447">
        <ele>159</ele>
        <time>2020-08-06T08:00:11Z</time>
      </trkpt>
      <trkpt lat="48.66037" lon="1.72422">
        <ele>159</ele>
        <time>2020-08-06T08:00:25Z</time>
      </trkpt>
      <trkpt lat="48.66047" lon="1.72399">
        <ele>157</ele>
        <time>2020-08-06T08:00:39Z</time>
      </trkpt>
      <trkpt lat="48.66059" lon="1.72375">
        <ele>156</ele>
        <time>2020-08-06T08:00:51Z</time>
      </trkpt>
      <trkpt lat="48.66071" lon="1.72355">
        <ele>155</ele>
        <time>2020-08-06T08:01:04Z</time>
      </trkpt>
      <trkpt lat="48.66083" lon="1.72333">
        <ele>153</ele>
        <time>2020-08-06T08:01:15Z</time>
      </trkpt>
      <trkpt lat="48.66092" lon="1.72309">
        <ele>152</ele>
        <time>2020-08-06T08:01:28Z</time>
      </trkpt>
      <trkpt lat="48.66102" lon="1.72286">
        <ele>151</ele>
        <time>2020-08-06T08:01:42Z</time>
      </trkpt>
      <trkpt lat="48.66112" lon="1.72261">
        <ele>151</ele>
        <time>2020-08-06T08:01:52Z</time>
      </trkpt>
      <trkpt lat="48.66121" lon="1.72237">
        <ele>149</ele>
        <time>2020-08-06T08:02:07Z</time>
      </trkpt>
      <trkpt lat="48.66132" lon="1.72215">
        <ele>149</ele>
        <time>2020-08-06T08:02:18Z</time>
      </trkpt>
      <trkpt lat="48.66139" lon="1.72189">
        <ele>148</ele>
        <time>2020-08-06T08:02:29Z</time>
      </trkpt>
      <trkpt lat="48.66146" lon="1.72163">
        <ele>146</ele>
        <time>2020-08-06T08:02:40Z</time>
      </trkpt>
      <trkpt lat="48.66152" lon="1.72138">
        <ele>146</ele>
        <time>2020-08-06T08:02:56Z</time>
      </trkpt>
      <trkpt lat="48.66154" lon="1.7211">
        <ele>146</ele>
        <time>2020-08-06T08:03:11Z</time>
      </trkpt>
      <trkpt lat="48.66159" lon="1.72082">
        <ele>145</ele>
        <time>2020-08-06T08:03:26Z</time>
      </trkpt>
      <trkpt lat="48.66167" lon="1.72056">
        <ele>143</ele>
        <time>2020-08-06T08:03:44Z</time>
      </trkpt>
      <trkpt lat="48.66172" lon="1.72028">
        <ele>143</ele>
        <time>2020-08-06T08:04:36Z</time>
      </trkpt>
      <trkpt lat="48.66177" lon="1.72001">
        <ele>143</ele>
        <time>2020-08-06T08:04:50Z</time>
      </trkpt>
      <trkpt lat="48.66168" lon="1.71975">
        <ele>143</ele>
        <time>2020-08-06T08:05:02Z</time>
      </trkpt>
      <trkpt lat="48.66163" lon="1.71948">
        <ele>145</ele>
        <time>2020-08-06T08:05:18Z</time>
      </trkpt>
      <trkpt lat="48.66155" lon="1.71923">
        <ele>145</ele>
        <time>2020-08-06T08:05:34Z</time>
      </trkpt>
      <trkpt lat="48.66144" lon="1.71899">
        <ele>146</ele>
        <time>2020-08-06T08:05:46Z</time>
      </trkpt>
      <trkpt lat="48.66133" lon="1.71876">
        <ele>147</ele>
        <time>2020-08-06T08:06:02Z</time>
      </trkpt>
      <trkpt lat="48.66127" lon="1.71848">
        <ele>147</ele>
        <time>2020-08-06T08:06:23Z</time>
      </trkpt>
      <trkpt lat="48.6611" lon="1.71836">
        <ele>148</ele>
        <time>2020-08-06T08:06:38Z</time>
      </trkpt>
      <trkpt lat="48.66092" lon="1.71833">
        <ele>149</ele>
        <time>2020-08-06T08:06:53Z</time>
      </trkpt>
      <trkpt lat="48.66073" lon="1.71832">
        <ele>150</ele>
        <time>2020-08-06T08:07:08Z</time>
      </trkpt>
      <trkpt lat="48.66055" lon="1.71831">
        <ele>151</ele>
        <time>2020-08-06T08:07:22Z</time>
      </trkpt>
      <trkpt lat="48.66036" lon="1.7183">
        <ele>151</ele>
        <time>2020-08-06T08:07:37Z</time>
      </trkpt>
      <trkpt lat="48.66017" lon="1.71832">
        <ele>152</ele>
        <time>2020-08-06T08:07:53Z</time>
      </trkpt>
      <trkpt lat="48.66" lon="1.7183">
        <ele>153</ele>
        <time>2020-08-06T08:08:06Z</time>
      </trkpt>
      <trkpt lat="48.65981" lon="1.71836">
        <ele>154</ele>
        <time>2020-08-06T08:08:20Z</time>
      </trkpt>
      <trkpt lat="48.65963" lon="1.71841">
        <ele>155</ele>
        <time>2020-08-06T08:08:34Z</time>
      </trkpt>
      <trkpt lat="48.65944" lon="1.71845">
        <ele>156</ele>
        <time>2020-08-06T08:08:50Z</time>
      </trkpt>
      <trkpt lat="48.65925" lon="1.71847">
        <ele>158</ele>
        <time>2020-08-06T08:09:03Z</time>
      </trkpt>
      <trkpt lat="48.65907" lon="1.71853">
        <ele>160</ele>
        <time>2020-08-06T08:09:20Z</time>
      </trkpt>
      <trkpt lat="48.65889" lon="1.71861">
        <ele>160</ele>
        <time>2020-08-06T08:09:35Z</time>
      </trkpt>
      <trkpt lat="48.6587" lon="1.71865">
        <ele>161</ele>
        <time>2020-08-06T08:09:50Z</time>
      </trkpt>
      <trkpt lat="48.65852" lon="1.71868">
        <ele>161</ele>
        <time>2020-08-06T08:10:04Z</time>
      </trkpt>
      <trkpt lat="48.65833" lon="1.71867">
        <ele>165</ele>
        <time>2020-08-06T08:10:20Z</time>
      </trkpt>
      <trkpt lat="48.65815" lon="1.71865">
        <ele>166</ele>
        <time>2020-08-06T08:10:37Z</time>
      </trkpt>
      <trkpt lat="48.65797" lon="1.71871">
        <ele>167</ele>
        <time>2020-08-06T08:10:50Z</time>
      </trkpt>
      <trkpt lat="48.65779" lon="1.7188">
        <ele>167</ele>
        <time>2020-08-06T08:11:03Z</time>
      </trkpt>
      <trkpt lat="48.65761" lon="1.71888">
        <ele>168</ele>
        <time>2020-08-06T08:11:17Z</time>
      </trkpt>
      <trkpt lat="48.65743" lon="1.71897">
        <ele>173</ele>
        <time>2020-08-06T08:11:33Z</time>
      </trkpt>
      <trkpt lat="48.65725" lon="1.71905">
        <ele>174</ele>
        <time>2020-08-06T08:11:49Z</time>
      </trkpt>
      <trkpt lat="48.65707" lon="1.71913">
        <ele>175</ele>
        <time>2020-08-06T08:12:04Z</time>
      </trkpt>
      <trkpt lat="48.65689" lon="1.71909">
        <ele>177</ele>
        <time>2020-08-06T08:12:20Z</time>
      </trkpt>
      <trkpt lat="48.65671" lon="1.71902">
        <ele>178</ele>
        <time>2020-08-06T08:12:34Z</time>
      </trkpt>
      <trkpt lat="48.65654" lon="1.7189">
        <ele>179</ele>
        <time>2020-08-06T08:12:48Z</time>
      </trkpt>
      <trkpt lat="48.65636" lon="1.71881">
        <ele>178</ele>
        <time>2020-08-06T08:13:00Z</time>
      </trkpt>
      <trkpt lat="48.65619" lon="1.71871">
        <ele>178</ele>
        <time>2020-08-06T08:13:13Z</time>
      </trkpt>
      <trkpt lat="48.65604" lon="1.71857">
        <ele>178</ele>
        <time>2020-08-06T08:15:44Z</time>
      </trkpt>
      <trkpt lat="48.65586" lon="1.71847">
        <ele>178</ele>
        <time>2020-08-06T08:16:40Z</time>
      </trkpt>
      <trkpt lat="48.65568" lon="1.71834">
        <ele>176</ele>
        <time>2020-08-06T08:16:52Z</time>
      </trkpt>
      <trkpt lat="48.65552" lon="1.7182">
        <ele>175</ele>
        <time>2020-08-06T08:17:02Z</time>
      </trkpt>
      <trkpt lat="48.65538" lon="1.71798">
        <ele>174</ele>
        <time>2020-08-06T08:17:13Z</time>
      </trkpt>
      <trkpt lat="48.65526" lon="1.71778">
        <ele>174</ele>
        <time>2020-08-06T08:17:24Z</time>
      </trkpt>
      <trkpt lat="48.65514" lon="1.71755">
        <ele>173</ele>
        <time>2020-08-06T08:17:36Z</time>
      </trkpt>
      <trkpt lat="48.65503" lon="1.71731">
        <ele>173</ele>
        <time>2020-08-06T08:17:48Z</time>
      </trkpt>
      <trkpt lat="48.65493" lon="1.71707">
        <ele>171</ele>
        <time>2020-08-06T08:17:59Z</time>
      </trkpt>
      <trkpt lat="48.65483" lon="1.71685">
        <ele>171</ele>
        <time>2020-08-06T08:18:11Z</time>
      </trkpt>
      <trkpt lat="48.6547" lon="1.71664">
        <ele>170</ele>
        <time>2020-08-06T08:18:25Z</time>
      </trkpt>
      <trkpt lat="48.6546" lon="1.71641">
        <ele>170</ele>
        <time>2020-08-06T08:18:37Z</time>
      </trkpt>
      <trkpt lat="48.65445" lon="1.71623">
        <ele>169</ele>
        <time>2020-08-06T08:18:50Z</time>
      </trkpt>
      <trkpt lat="48.65431" lon="1.71606">
        <ele>169</ele>
        <time>2020-08-06T08:19:04Z</time>
      </trkpt>
      <trkpt lat="48.65419" lon="1.71584">
        <ele>168</ele>
        <time>2020-08-06T08:19:16Z</time>
      </trkpt>
      <trkpt lat="48.65408" lon="1.7156">
        <ele>169</ele>
        <time>2020-08-06T08:19:27Z</time>
      </trkpt>
      <trkpt lat="48.65398" lon="1.71538">
        <ele>169</ele>
        <time>2020-08-06T08:19:39Z</time>
      </trkpt>
      <trkpt lat="48.65391" lon="1.71513">
        <ele>169</ele>
        <time>2020-08-06T08:19:51Z</time>
      </trkpt>
      <trkpt lat="48.65381" lon="1.71489">
        <ele>169</ele>
        <time>2020-08-06T08:20:03Z</time>
      </trkpt>
      <trkpt lat="48.65372" lon="1.71463">
        <ele>169</ele>
        <time>2020-08-06T08:20:15Z</time>
      </trkpt>
      <trkpt lat="48.65361" lon="1.71439">
        <ele>169</ele>
        <time>2020-08-06T08:20:26Z</time>
      </trkpt>
      <trkpt lat="48.65352" lon="1.71416">
        <ele>168</ele>
        <time>2020-08-06T08:20:37Z</time>
      </trkpt>
      <trkpt lat="48.65342" lon="1.71391">
        <ele>168</ele>
        <time>2020-08-06T08:20:49Z</time>
      </trkpt>
      <trkpt lat="48.65331" lon="1.71368">
        <ele>166</ele>
        <time>2020-08-06T08:21:01Z</time>
      </trkpt>
      <trkpt lat="48.65322" lon="1.71345">
        <ele>166</ele>
        <time>2020-08-06T08:21:13Z</time>
      </trkpt>
      <trkpt lat="48.6531" lon="1.71321">
        <ele>165</ele>
        <time>2020-08-06T08:21:26Z</time>
      </trkpt>
      <trkpt lat="48.653" lon="1.71299">
        <ele>165</ele>
        <time>2020-08-06T08:21:38Z</time>
      </trkpt>
      <trkpt lat="48.65288" lon="1.71275">
        <ele>164</ele>
        <time>2020-08-06T08:21:51Z</time>
      </trkpt>
      <trkpt lat="48.65276" lon="1.71254">
        <ele>164</ele>
        <time>2020-08-06T08:22:04Z</time>
      </trkpt>
      <trkpt lat="48.65268" lon="1.71229">
        <ele>164</ele>
        <time>2020-08-06T08:22:21Z</time>
      </trkpt>
      <trkpt lat="48.65278" lon="1.71205">
        <ele>165</ele>
        <time>2020-08-06T08:22:37Z</time>
      </trkpt>
      <trkpt lat="48.65285" lon="1.7118">
        <ele>165</ele>
        <time>2020-08-06T08:22:50Z</time>
      </trkpt>
      <trkpt lat="48.65293" lon="1.71155">
        <ele>165</ele>
        <time>2020-08-06T08:23:04Z</time>
      </trkpt>
      <trkpt lat="48.653" lon="1.71128">
        <ele>165</ele>
        <time>2020-08-06T08:23:19Z</time>
      </trkpt>
      <trkpt lat="48.65309" lon="1.71103">
        <ele>165</ele>
        <time>2020-08-06T08:23:33Z</time>
      </trkpt>
      <trkpt lat="48.65317" lon="1.71079">
        <ele>165</ele>
        <time>2020-08-06T08:23:48Z</time>
      </trkpt>
      <trkpt lat="48.65327" lon="1.71055">
        <ele>165</ele>
        <time>2020-08-06T08:24:01Z</time>
      </trkpt>
      <trkpt lat="48.65333" lon="1.71027">
        <ele>164</ele>
        <time>2020-08-06T08:24:15Z</time>
      </trkpt>
      <trkpt lat="48.6534" lon="1.71">
        <ele>163</ele>
        <time>2020-08-06T08:24:28Z</time>
      </trkpt>
      <trkpt lat="48.65345" lon="1.70974">
        <ele>162</ele>
        <time>2020-08-06T08:24:40Z</time>
      </trkpt>
      <trkpt lat="48.65349" lon="1.70946">
        <ele>162</ele>
        <time>2020-08-06T08:24:53Z</time>
      </trkpt>
      <trkpt lat="48.65351" lon="1.70918">
        <ele>162</ele>
        <time>2020-08-06T08:25:05Z</time>
      </trkpt>
      <trkpt lat="48.65353" lon="1.7089">
        <ele>163</ele>
        <time>2020-08-06T08:25:18Z</time>
      </trkpt>
      <trkpt lat="48.65355" lon="1.70863">
        <ele>163</ele>
        <time>2020-08-06T08:25:30Z</time>
      </trkpt>
      <trkpt lat="48.65357" lon="1.70835">
        <ele>164</ele>
        <time>2020-08-06T08:25:42Z</time>
      </trkpt>
      <trkpt lat="48.65359" lon="1.70807">
        <ele>164</ele>
        <time>2020-08-06T08:25:55Z</time>
      </trkpt>
      <trkpt lat="48.65362" lon="1.70779">
        <ele>164</ele>
        <time>2020-08-06T08:26:08Z</time>
      </trkpt>
      <trkpt lat="48.65365" lon="1.70751">
        <ele>164</ele>
        <time>2020-08-06T08:26:22Z</time>
      </trkpt>
      <trkpt lat="48.65381" lon="1.70737">
        <ele>164</ele>
        <time>2020-08-06T08:26:36Z</time>
      </trkpt>
      <trkpt lat="48.654" lon="1.70736">
        <ele>164</ele>
        <time>2020-08-06T08:26:49Z</time>
      </trkpt>
      <trkpt lat="48.65418" lon="1.70735">
        <ele>164</ele>
        <time>2020-08-06T08:27:01Z</time>
      </trkpt>
      <trkpt lat="48.65437" lon="1.70733">
        <ele>164</ele>
        <time>2020-08-06T08:27:14Z</time>
      </trkpt>
      <trkpt lat="48.65455" lon="1.70732">
        <ele>164</ele>
        <time>2020-08-06T08:27:27Z</time>
      </trkpt>
      <trkpt lat="48.65475" lon="1.70731">
        <ele>164</ele>
        <time>2020-08-06T08:27:40Z</time>
      </trkpt>
      <trkpt lat="48.65494" lon="1.70728">
        <ele>164</ele>
        <time>2020-08-06T08:27:53Z</time>
      </trkpt>
      <trkpt lat="48.6551" lon="1.70712">
        <ele>164</ele>
        <time>2020-08-06T08:28:06Z</time>
      </trkpt>
      <trkpt lat="48.65519" lon="1.70687">
        <ele>164</ele>
        <time>2020-08-06T08:28:19Z</time>
      </trkpt>
      <trkpt lat="48.65533" lon="1.70667">
        <ele>165</ele>
        <time>2020-08-06T08:28:33Z</time>
      </trkpt>
      <trkpt lat="48.65545" lon="1.70645">
        <ele>165</ele>
        <time>2020-08-06T08:28:49Z</time>
      </trkpt>
      <trkpt lat="48.65546" lon="1.70618">
        <ele>165</ele>
        <time>2020-08-06T08:29:02Z</time>
      </trkpt>
      <trkpt lat="48.65547" lon="1.70589">
        <ele>165</ele>
        <time>2020-08-06T08:29:17Z</time>
      </trkpt>
      <trkpt lat="48.65544" lon="1.7056">
        <ele>165</ele>
        <time>2020-08-06T08:29:30Z</time>
      </trkpt>
      <trkpt lat="48.65539" lon="1.70533">
        <ele>165</ele>
        <time>2020-08-06T08:29:44Z</time>
      </trkpt>
      <trkpt lat="48.65554" lon="1.70516">
        <ele>165</ele>
        <time>2020-08-06T08:29:59Z</time>
      </trkpt>
      <trkpt lat="48.6557" lon="1.70504">
        <ele>165</ele>
        <time>2020-08-06T08:30:13Z</time>
      </trkpt>
      <trkpt lat="48.65587" lon="1.70492">
        <ele>164</ele>
        <time>2020-08-06T08:30:25Z</time>
      </trkpt>
      <trkpt lat="48.65604" lon="1.70481">
        <ele>164</ele>
        <time>2020-08-06T08:30:38Z</time>
      </trkpt>
      <trkpt lat="48.6562" lon="1.70468">
        <ele>163</ele>
        <time>2020-08-06T08:30:52Z</time>
      </trkpt>
      <trkpt lat="48.65637" lon="1.70454">
        <ele>163</ele>
        <time>2020-08-06T08:31:07Z</time>
      </trkpt>
      <trkpt lat="48.65653" lon="1.70438">
        <ele>163</ele>
        <time>2020-08-06T08:31:21Z</time>
      </trkpt>
      <trkpt lat="48.65669" lon="1.70423">
        <ele>162</ele>
        <time>2020-08-06T08:31:35Z</time>
      </trkpt>
      <trkpt lat="48.65685" lon="1.70412">
        <ele>163</ele>
        <time>2020-08-06T08:31:49Z</time>
      </trkpt>
      <trkpt lat="48.65703" lon="1.70403">
        <ele>163</ele>
        <time>2020-08-06T08:32:03Z</time>
      </trkpt>
      <trkpt lat="48.65721" lon="1.704">
        <ele>162</ele>
        <time>2020-08-06T08:32:22Z</time>
      </trkpt>
      <trkpt lat="48.6574" lon="1.70407">
        <ele>162</ele>
        <time>2020-08-06T08:32:42Z</time>
      </trkpt>
      <trkpt lat="48.65758" lon="1.70413">
        <ele>160</ele>
        <time>2020-08-06T08:33:06Z</time>
      </trkpt>
      <trkpt lat="48.65776" lon="1.70416">
        <ele>158</ele>
        <time>2020-08-06T08:33:20Z</time>
      </trkpt>
      <trkpt lat="48.65795" lon="1.70416">
        <ele>157</ele>
        <time>2020-08-06T08:33:37Z</time>
      </trkpt>
      <trkpt lat="48.65813" lon="1.70424">
        <ele>154</ele>
        <time>2020-08-06T08:33:52Z</time>
      </trkpt>
      <trkpt lat="48.6583" lon="1.70431">
        <ele>153</ele>
        <time>2020-08-06T08:34:08Z</time>
      </trkpt>
      <trkpt lat="48.65849" lon="1.70434">
        <ele>149</ele>
        <time>2020-08-06T08:34:32Z</time>
      </trkpt>
      <trkpt lat="48.65865" lon="1.70423">
        <ele>147</ele>
        <time>2020-08-06T08:34:46Z</time>
      </trkpt>
      <trkpt lat="48.65884" lon="1.70416">
        <ele>145</ele>
        <time>2020-08-06T08:34:58Z</time>
      </trkpt>
      <trkpt lat="48.65903" lon="1.70418">
        <ele>143</ele>
        <time>2020-08-06T08:35:11Z</time>
      </trkpt>
      <trkpt lat="48.65921" lon="1.70425">
        <ele>141</ele>
        <time>2020-08-06T08:35:24Z</time>
      </trkpt>
      <trkpt lat="48.6594" lon="1.70427">
        <ele>140</ele>
        <time>2020-08-06T08:35:49Z</time>
      </trkpt>
      <trkpt lat="48.65942" lon="1.70455">
        <ele>140</ele>
        <time>2020-08-06T08:36:09Z</time>
      </trkpt>
      <trkpt lat="48.65943" lon="1.70483">
        <ele>141</ele>
        <time>2020-08-06T08:36:23Z</time>
      </trkpt>
      <trkpt lat="48.65944" lon="1.7051">
        <ele>144</ele>
        <time>2020-08-06T08:36:43Z</time>
      </trkpt>
      <trkpt lat="48.65947" lon="1.70538">
        <ele>144</ele>
        <time>2020-08-06T08:37:00Z</time>
      </trkpt>
      <trkpt lat="48.65949" lon="1.70567">
        <ele>146</ele>
        <time>2020-08-06T08:37:15Z</time>
      </trkpt>
      <trkpt lat="48.65952" lon="1.70595">
        <ele>149</ele>
        <time>2020-08-06T08:37:29Z</time>
      </trkpt>
      <trkpt lat="48.65952" lon="1.70623">
        <ele>150</ele>
        <time>2020-08-06T08:37:44Z</time>
      </trkpt>
      <trkpt lat="48.65958" lon="1.7065">
        <ele>150</ele>
        <time>2020-08-06T08:38:18Z</time>
      </trkpt>
      <trkpt lat="48.65958" lon="1.70679">
        <ele>151</ele>
        <time>2020-08-06T08:38:35Z</time>
      </trkpt>
      <trkpt lat="48.65958" lon="1.70707">
        <ele>151</ele>
        <time>2020-08-06T08:38:50Z</time>
      </trkpt>
      <trkpt lat="48.65956" lon="1.70735">
        <ele>151</ele>
        <time>2020-08-06T08:39:03Z</time>
      </trkpt>
      <trkpt lat="48.65959" lon="1.70765">
        <ele>151</ele>
        <time>2020-08-06T08:39:17Z</time>
      </trkpt>
      <trkpt lat="48.65966" lon="1.70791">
        <ele>150</ele>
        <time>2020-08-06T08:39:29Z</time>
      </trkpt>
      <trkpt lat="48.65972" lon="1.70817">
        <ele>150</ele>
        <time>2020-08-06T08:39:40Z</time>
      </trkpt>
      <trkpt lat="48.65978" lon="1.70843">
        <ele>150</ele>
        <time>2020-08-06T08:39:53Z</time>
      </trkpt>
      <trkpt lat="48.65983" lon="1.7087">
        <ele>150</ele>
        <time>2020-08-06T08:40:05Z</time>
      </trkpt>
      <trkpt lat="48.65987" lon="1.70897">
        <ele>149</ele>
        <time>2020-08-06T08:40:17Z</time>
      </trkpt>
      <trkpt lat="48.65992" lon="1.70923">
        <ele>149</ele>
        <time>2020-08-06T08:40:29Z</time>
      </trkpt>
      <trkpt lat="48.65997" lon="1.70951">
        <ele>149</ele>
        <time>2020-08-06T08:40:42Z</time>
      </trkpt>
      <trkpt lat="48.66" lon="1.70978">
        <ele>147</ele>
        <time>2020-08-06T08:40:53Z</time>
      </trkpt>
      <trkpt lat="48.66001" lon="1.71005">
        <ele>148</ele>
        <time>2020-08-06T08:41:07Z</time>
      </trkpt>
      <trkpt lat="48.66002" lon="1.71034">
        <ele>147</ele>
        <time>2020-08-06T08:41:24Z</time>
      </trkpt>
      <trkpt lat="48.66001" lon="1.71061">
        <ele>147</ele>
        <time>2020-08-06T08:41:38Z</time>
      </trkpt>
      <trkpt lat="48.65998" lon="1.7109">
        <ele>150</ele>
        <time>2020-08-06T08:41:51Z</time>
      </trkpt>
      <trkpt lat="48.65995" lon="1.71118">
        <ele>151</ele>
        <time>2020-08-06T08:42:04Z</time>
      </trkpt>
      <trkpt lat="48.65996" lon="1.71148">
        <ele>150</ele>
        <time>2020-08-06T08:42:15Z</time>
      </trkpt>
      <trkpt lat="48.6599" lon="1.71174">
        <ele>149</ele>
        <time>2020-08-06T08:42:28Z</time>
      </trkpt>
      <trkpt lat="48.65982" lon="1.71199">
        <ele>150</ele>
        <time>2020-08-06T08:42:41Z</time>
      </trkpt>
      <trkpt lat="48.65978" lon="1.71226">
        <ele>150</ele>
        <time>2020-08-06T08:42:55Z</time>
      </trkpt>
      <trkpt lat="48.65978" lon="1.71255">
        <ele>149</ele>
        <time>2020-08-06T08:43:09Z</time>
      </trkpt>
      <trkpt lat="48.65976" lon="1.71283">
        <ele>150</ele>
        <time>2020-08-06T08:43:27Z</time>
      </trkpt>
      <trkpt lat="48.65977" lon="1.71311">
        <ele>149</ele>
        <time>2020-08-06T08:43:40Z</time>
      </trkpt>
      <trkpt lat="48.65977" lon="1.71339">
        <ele>149</ele>
        <time>2020-08-06T08:43:53Z</time>
      </trkpt>
      <trkpt lat="48.6598" lon="1.71367">
        <ele>149</ele>
        <time>2020-08-06T08:44:07Z</time>
      </trkpt>
      <trkpt lat="48.65984" lon="1.71394">
        <ele>149</ele>
        <time>2020-08-06T08:44:22Z</time>
      </trkpt>
      <trkpt lat="48.65988" lon="1.71423">
        <ele>148</ele>
        <time>2020-08-06T08:44:33Z</time>
      </trkpt>
      <trkpt lat="48.65995" lon="1.7145">
        <ele>149</ele>
        <time>2020-08-06T08:44:45Z</time>
      </trkpt>
      <trkpt lat="48.65998" lon="1.71477">
        <ele>149</ele>
        <time>2020-08-06T08:45:00Z</time>
      </trkpt>
      <trkpt lat="48.66003" lon="1.71504">
        <ele>148</ele>
        <time>2020-08-06T08:45:15Z</time>
      </trkpt>
      <trkpt lat="48.66008" lon="1.71531">
        <ele>147</ele>
        <time>2020-08-06T08:45:29Z</time>
      </trkpt>
      <trkpt lat="48.66017" lon="1.71555">
        <ele>147</ele>
        <time>2020-08-06T08:45:40Z</time>
      </trkpt>
      <trkpt lat="48.66029" lon="1.71576">
        <ele>147</ele>
        <time>2020-08-06T08:45:52Z</time>
      </trkpt>
      <trkpt lat="48.6604" lon="1.71597">
        <ele>147</ele>
        <time>2020-08-06T08:46:04Z</time>
      </trkpt>
      <trkpt lat="48.66052" lon="1.71619">
        <ele>147</ele>
        <time>2020-08-06T08:46:23Z</time>
      </trkpt>
      <trkpt lat="48.66061" lon="1.71644">
        <ele>147</ele>
        <time>2020-08-06T08:46:35Z</time>
      </trkpt>
      <trkpt lat="48.6607" lon="1.71667">
        <ele>148</ele>
        <time>2020-08-06T08:46:48Z</time>
      </trkpt>
      <trkpt lat="48.6608" lon="1.71691">
        <ele>148</ele>
        <time>2020-08-06T08:47:01Z</time>
      </trkpt>
      <trkpt lat="48.6609" lon="1.71717">
        <ele>146</ele>
        <time>2020-08-06T08:47:14Z</time>
      </trkpt>
      <trkpt lat="48.661" lon="1.7174">
        <ele>146</ele>
        <time>2020-08-06T08:47:28Z</time>
      </trkpt>
      <trkpt lat="48.66109" lon="1.71766">
        <ele>147</ele>
        <time>2020-08-06T08:47:45Z</time>
      </trkpt>
      <trkpt lat="48.66119" lon="1.7179">
        <ele>147</ele>
        <time>2020-08-06T08:48:02Z</time>
      </trkpt>
      <trkpt lat="48.66126" lon="1.71816">
        <ele>147</ele>
        <time>2020-08-06T08:48:13Z</time>
      </trkpt>
      <trkpt lat="48.66136" lon="1.71841">
        <ele>147</ele>
        <time>2020-08-06T08:48:26Z</time>
      </trkpt>
      <trkpt lat="48.66146" lon="1.71866">
        <ele>146</ele>
        <time>2020-08-06T08:48:41Z</time>
      </trkpt>
      <trkpt lat="48.6615" lon="1.71892">
        <ele>146</ele>
        <time>2020-08-06T08:48:56Z</time>
      </trkpt>
      <trkpt lat="48.66155" lon="1.7192">
        <ele>145</ele>
        <time>2020-08-06T08:49:13Z</time>
      </trkpt>
      <trkpt lat="48.66161" lon="1.71948">
        <ele>145</ele>
        <time>2020-08-06T08:49:21Z</time>
      </trkpt>
      <trkpt lat="48.66166" lon="1.71975">
        <ele>145</ele>
        <time>2020-08-06T08:49:33Z</time>
      </trkpt>
      <trkpt lat="48.6617" lon="1.72002">
        <ele>144</ele>
        <time>2020-08-06T08:49:47Z</time>
      </trkpt>
      <trkpt lat="48.66172" lon="1.72031">
        <ele>143</ele>
        <time>2020-08-06T08:50:00Z</time>
      </trkpt>
      <trkpt lat="48.66176" lon="1.72059">
        <ele>143</ele>
        <time>2020-08-06T08:50:16Z</time>
      </trkpt>
      <trkpt lat="48.66179" lon="1.72086">
        <ele>143</ele>
        <time>2020-08-06T08:50:30Z</time>
      </trkpt>
      <trkpt lat="48.66183" lon="1.72114">
        <ele>143</ele>
        <time>2020-08-06T08:50:46Z</time>
      </trkpt>
      <trkpt lat="48.66185" lon="1.72142">
        <ele>143</ele>
        <time>2020-08-06T08:51:00Z</time>
      </trkpt>
      <trkpt lat="48.66186" lon="1.7217">
        <ele>145</ele>
        <time>2020-08-06T08:51:13Z</time>
      </trkpt>
      <trkpt lat="48.66192" lon="1.72197">
        <ele>145</ele>
        <time>2020-08-06T08:51:25Z</time>
      </trkpt>
      <trkpt lat="48.66195" lon="1.72224">
        <ele>145</ele>
        <time>2020-08-06T08:51:37Z</time>
      </trkpt>
      <trkpt lat="48.66199" lon="1.72252">
        <ele>147</ele>
        <time>2020-08-06T08:51:51Z</time>
      </trkpt>
      <trkpt lat="48.66202" lon="1.72281">
        <ele>147</ele>
        <time>2020-08-06T08:52:08Z</time>
      </trkpt>
      <trkpt lat="48.66204" lon="1.72309">
        <ele>147</ele>
        <time>2020-08-06T08:52:23Z</time>
      </trkpt>
      <trkpt lat="48.66208" lon="1.72336">
        <ele>149</ele>
        <time>2020-08-06T08:52:35Z</time>
      </trkpt>
      <trkpt lat="48.66211" lon="1.72363">
        <ele>149</ele>
        <time>2020-08-06T08:52:51Z</time>
      </trkpt>
      <trkpt lat="48.66214" lon="1.72391">
        <ele>149</ele>
        <time>2020-08-06T08:53:07Z</time>
      </trkpt>
      <trkpt lat="48.66217" lon="1.7242">
        <ele>152</ele>
        <time>2020-08-06T08:53:18Z</time>
      </trkpt>
      <trkpt lat="48.66222" lon="1.72447">
        <ele>153</ele>
        <time>2020-08-06T08:53:29Z</time>
      </trkpt>
      <trkpt lat="48.66228" lon="1.72474">
        <ele>154</ele>
        <time>2020-08-06T08:53:42Z</time>
      </trkpt>
      <trkpt lat="48.66235" lon="1.72499">
        <ele>155</ele>
        <time>2020-08-06T08:53:57Z</time>
      </trkpt>
      <trkpt lat="48.66244" lon="1.72526">
        <ele>159</ele>
        <time>2020-08-06T08:54:11Z</time>
      </trkpt>
      <trkpt lat="48.66253" lon="1.72551">
        <ele>157</ele>
        <time>2020-08-06T08:54:23Z</time>
      </trkpt>
      <trkpt lat="48.66262" lon="1.72575">
        <ele>159</ele>
        <time>2020-08-06T08:54:40Z</time>
      </trkpt>
      <trkpt lat="48.66271" lon="1.72601">
        <ele>160</ele>
        <time>2020-08-06T08:54:59Z</time>
      </trkpt>
      <trkpt lat="48.6628" lon="1.72627">
        <ele>160</ele>
        <time>2020-08-06T08:55:14Z</time>
      </trkpt>
      <trkpt lat="48.66288" lon="1.72653">
        <ele>160</ele>
        <time>2020-08-06T08:55:28Z</time>
      </trkpt>
      <trkpt lat="48.66296" lon="1.72679">
        <ele>160</ele>
        <time>2020-08-06T08:55:44Z</time>
      </trkpt>
      <trkpt lat="48.66304" lon="1.72704">
        <ele>159</ele>
        <time>2020-08-06T08:56:00Z</time>
      </trkpt>
      <trkpt lat="48.6631" lon="1.72731">
        <ele>158</ele>
        <time>2020-08-06T08:56:33Z</time>
      </trkpt>
      <trkpt lat="48.66321" lon="1.72754">
        <ele>156</ele>
        <time>2020-08-06T08:56:48Z</time>
      </trkpt>
      <trkpt lat="48.66331" lon="1.7278">
        <ele>157</ele>
        <time>2020-08-06T08:57:05Z</time>
      </trkpt>
      <trkpt lat="48.66339" lon="1.72805">
        <ele>152</ele>
        <time>2020-08-06T08:57:20Z</time>
      </trkpt>
      <trkpt lat="48.66345" lon="1.72832">
        <ele>153</ele>
        <time>2020-08-06T08:57:33Z</time>
      </trkpt>
      <trkpt lat="48.66354" lon="1.72858">
        <ele>153</ele>
        <time>2020-08-06T08:57:43Z</time>
      </trkpt>
      <trkpt lat="48.66362" lon="1.72882">
        <ele>153</ele>
        <time>2020-08-06T08:57:57Z</time>
      </trkpt>
      <trkpt lat="48.66371" lon="1.72906">
        <ele>153</ele>
        <time>2020-08-06T08:58:12Z</time>
      </trkpt>
      <trkpt lat="48.66377" lon="1.72932">
        <ele>155</ele>
        <time>2020-08-06T08:58:25Z</time>
      </trkpt>
      <trkpt lat="48.66385" lon="1.72959">
        <ele>155</ele>
        <time>2020-08-06T08:58:41Z</time>
      </trkpt>
      <trkpt lat="48.66392" lon="1.72984">
        <ele>155</ele>
        <time>2020-08-06T08:58:54Z</time>
      </trkpt>
      <trkpt lat="48.66402" lon="1.73007">
        <ele>156</ele>
        <time>2020-08-06T08:59:07Z</time>
      </trkpt>
      <trkpt lat="48.66414" lon="1.73029">
        <ele>157</ele>
        <time>2020-08-06T08:59:22Z</time>
      </trkpt>
      <trkpt lat="48.66423" lon="1.73055">
        <ele>155</ele>
        <time>2020-08-06T08:59:36Z</time>
      </trkpt>
      <trkpt lat="48.66433" lon="1.73079">
        <ele>156</ele>
        <time>2020-08-06T08:59:49Z</time>
      </trkpt>
      <trkpt lat="48.66444" lon="1.73102">
        <ele>155</ele>
        <time>2020-08-06T09:00:01Z</time>
      </trkpt>
      <trkpt lat="48.66452" lon="1.73127">
        <ele>154</ele>
        <time>2020-08-06T09:00:14Z</time>
      </trkpt>
      <trkpt lat="48.66461" lon="1.73152">
        <ele>153</ele>
        <time>2020-08-06T09:00:31Z</time>
      </trkpt>
      <trkpt lat="48.66469" lon="1.73177">
        <ele>153</ele>
        <time>2020-08-06T09:00:53Z</time>
      </trkpt>
      <trkpt lat="48.66479" lon="1.732">
        <ele>153</ele>
        <time>2020-08-06T09:01:14Z</time>
      </trkpt>
      <trkpt lat="48.66487" lon="1.73225">
        <ele>153</ele>
        <time>2020-08-06T09:01:30Z</time>
      </trkpt>
      <trkpt lat="48.66495" lon="1.7325">
        <ele>150</ele>
        <time>2020-08-06T09:01:45Z</time>
      </trkpt>
      <trkpt lat="48.66501" lon="1.73275">
        <ele>148</ele>
        <time>2020-08-06T09:01:57Z</time>
      </trkpt>
      <trkpt lat="48.66509" lon="1.733">
        <ele>148</ele>
        <time>2020-08-06T09:02:09Z</time>
      </trkpt>
      <trkpt lat="48.66517" lon="1.73326">
        <ele>148</ele>
        <time>2020-08-06T09:02:26Z</time>
      </trkpt>
      <trkpt lat="48.66525" lon="1.7335">
        <ele>148</ele>
        <time>2020-08-06T09:02:38Z</time>
      </trkpt>
      <trkpt lat="48.66533" lon="1.73375">
        <ele>147</ele>
        <time>2020-08-06T09:02:51Z</time>
      </trkpt>
      <trkpt lat="48.66543" lon="1.734">
        <ele>146</ele>
        <time>2020-08-06T09:03:06Z</time>
      </trkpt>
      <trkpt lat="48.66552" lon="1.73424">
        <ele>146</ele>
        <time>2020-08-06T09:03:21Z</time>
      </trkpt>
      <trkpt lat="48.6656" lon="1.73451">
        <ele>146</ele>
        <time>2020-08-06T09:03:33Z</time>
      </trkpt>
      <trkpt lat="48.66577" lon="1.73461">
        <ele>146</ele>
        <time>2020-08-06T09:03:58Z</time>
      </trkpt>
      <trkpt lat="48.66594" lon="1.7345">
        <ele>146</ele>
        <time>2020-08-06T09:05:11Z</time>
      </trkpt>
      <trkpt lat="48.66605" lon="1.73427">
        <ele>146</ele>
        <time>2020-08-06T09:05:27Z</time>
      </trkpt>
      <trkpt lat="48.66613" lon="1.73402">
        <ele>145</ele>
        <time>2020-08-06T09:05:40Z</time>
      </trkpt>
      <trkpt lat="48.66621" lon="1.73376">
        <ele>146</ele>
        <time>2020-08-06T09:05:52Z</time>
      </trkpt>
      <trkpt lat="48.66628" lon="1.73351">
        <ele>146</ele>
        <time>2020-08-06T09:06:03Z</time>
      </trkpt>
      <trkpt lat="48.66636" lon="1.73325">
        <ele>146</ele>
        <time>2020-08-06T09:06:16Z</time>
      </trkpt>
      <trkpt lat="48.66645" lon="1.73301">
        <ele>146</ele>
        <time>2020-08-06T09:06:27Z</time>
      </trkpt>
      <trkpt lat="48.66654" lon="1.73276">
        <ele>146</ele>
        <time>2020-08-06T09:06:40Z</time>
      </trkpt>
      <trkpt lat="48.66661" lon="1.73251">
        <ele>147</ele>
        <time>2020-08-06T09:06:53Z</time>
      </trkpt>
      <trkpt lat="48.6667" lon="1.73227">
        <ele>146</ele>
        <time>2020-08-06T09:07:07Z</time>
      </trkpt>
      <trkpt lat="48.66678" lon="1.732">
        <ele>146</ele>
        <time>2020-08-06T09:07:19Z</time>
      </trkpt>
      <trkpt lat="48.66687" lon="1.73175">
        <ele>145</ele>
        <time>2020-08-06T09:07:33Z</time>
      </trkpt>
      <trkpt lat="48.66702" lon="1.73158">
        <ele>143</ele>
        <time>2020-08-06T09:07:47Z</time>
      </trkpt>
      <trkpt lat="48.66719" lon="1.73168">
        <ele>145</ele>
        <time>2020-08-06T09:08:08Z</time>
      </trkpt>
      <trkpt lat="48.66737" lon="1.73179">
        <ele>144</ele>
        <time>2020-08-06T09:08:22Z</time>
      </trkpt>
      <trkpt lat="48.66754" lon="1.73189">
        <ele>143</ele>
        <time>2020-08-06T09:08:46Z</time>
      </trkpt>
      <trkpt lat="48.66772" lon="1.73201">
        <ele>143</ele>
        <time>2020-08-06T09:09:01Z</time>
      </trkpt>
      <trkpt lat="48.66788" lon="1.73212">
        <ele>143</ele>
        <time>2020-08-06T09:09:12Z</time>
      </trkpt>
      <trkpt lat="48.66805" lon="1.73226">
        <ele>143</ele>
        <time>2020-08-06T09:09:25Z</time>
      </trkpt>
      <trkpt lat="48.66821" lon="1.73243">
        <ele>143</ele>
        <time>2020-08-06T09:09:36Z</time>
      </trkpt>
      <trkpt lat="48.66836" lon="1.73259">
        <ele>144</ele>
        <time>2020-08-06T09:09:47Z</time>
      </trkpt>
      <trkpt lat="48.66854" lon="1.73265">
        <ele>144</ele>
        <time>2020-08-06T09:10:03Z</time>
      </trkpt>
      <trkpt lat="48.66873" lon="1.73264">
        <ele>144</ele>
        <time>2020-08-06T09:10:17Z</time>
      </trkpt>
      <trkpt lat="48.66891" lon="1.7327">
        <ele>144</ele>
        <time>2020-08-06T09:10:28Z</time>
      </trkpt>
      <trkpt lat="48.66908" lon="1.7328">
        <ele>144</ele>
        <time>2020-08-06T09:10:42Z</time>
      </trkpt>
      <trkpt lat="48.66922" lon="1.733">
        <ele>144</ele>
        <time>2020-08-06T09:10:55Z</time>
      </trkpt>
      <trkpt lat="48.66927" lon="1.73328">
        <ele>146</ele>
        <time>2020-08-06T09:11:08Z</time>
      </trkpt>
      <trkpt lat="48.66933" lon="1.73355">
        <ele>148</ele>
        <time>2020-08-06T09:11:23Z</time>
      </trkpt>
      <trkpt lat="48.66944" lon="1.73376">
        <ele>149</ele>
        <time>2020-08-06T09:11:53Z</time>
      </trkpt>
      <trkpt lat="48.66964" lon="1.73375">
        <ele>149</ele>
        <time>2020-08-06T09:12:06Z</time>
      </trkpt>
      <trkpt lat="48.66981" lon="1.73383">
        <ele>149</ele>
        <time>2020-08-06T09:12:19Z</time>
      </trkpt>
      <trkpt lat="48.66999" lon="1.73387">
        <ele>150</ele>
        <time>2020-08-06T09:12:33Z</time>
      </trkpt>
      <trkpt lat="48.67015" lon="1.73374">
        <ele>151</ele>
        <time>2020-08-06T09:12:46Z</time>
      </trkpt>
      <trkpt lat="48.67028" lon="1.73352">
        <ele>150</ele>
        <time>2020-08-06T09:13:00Z</time>
      </trkpt>
      <trkpt lat="48.67041" lon="1.73333">
        <ele>145</ele>
        <time>2020-08-06T09:13:13Z</time>
      </trkpt>
      <trkpt lat="48.67057" lon="1.73319">
        <ele>146</ele>
        <time>2020-08-06T09:13:26Z</time>
      </trkpt>
      <trkpt lat="48.67076" lon="1.73316">
        <ele>146</ele>
        <time>2020-08-06T09:13:38Z</time>
      </trkpt>
      <trkpt lat="48.67094" lon="1.73324">
        <ele>147</ele>
        <time>2020-08-06T09:13:52Z</time>
      </trkpt>
      <trkpt lat="48.67111" lon="1.73337">
        <ele>150</ele>
        <time>2020-08-06T09:14:06Z</time>
      </trkpt>
      <trkpt lat="48.67128" lon="1.73345">
        <ele>149</ele>
        <time>2020-08-06T09:14:20Z</time>
      </trkpt>
      <trkpt lat="48.67144" lon="1.73359">
        <ele>149</ele>
        <time>2020-08-06T09:14:32Z</time>
      </trkpt>
      <trkpt lat="48.67156" lon="1.73381">
        <ele>150</ele>
        <time>2020-08-06T09:14:45Z</time>
      </trkpt>
      <trkpt lat="48.67167" lon="1.73403">
        <ele>149</ele>
        <time>2020-08-06T09:14:58Z</time>
      </trkpt>
      <trkpt lat="48.6718" lon="1.73425">
        <ele>151</ele>
        <time>2020-08-06T09:15:11Z</time>
      </trkpt>
      <trkpt lat="48.67192" lon="1.73447">
        <ele>151</ele>
        <time>2020-08-06T09:15:24Z</time>
      </trkpt>
      <trkpt lat="48.67201" lon="1.73471">
        <ele>152</ele>
        <time>2020-08-06T09:15:37Z</time>
      </trkpt>
      <trkpt lat="48.67209" lon="1.73496">
        <ele>152</ele>
        <time>2020-08-06T09:15:52Z</time>
      </trkpt>
      <trkpt lat="48.67218" lon="1.73522">
        <ele>154</ele>
        <time>2020-08-06T09:16:03Z</time>
      </trkpt>
      <trkpt lat="48.67227" lon="1.73546">
        <ele>154</ele>
        <time>2020-08-06T09:16:16Z</time>
      </trkpt>
      <trkpt lat="48.67231" lon="1.73574">
        <ele>153</ele>
        <time>2020-08-06T09:16:28Z</time>
      </trkpt>
      <trkpt lat="48.67237" lon="1.73601">
        <ele>155</ele>
        <time>2020-08-06T09:16:44Z</time>
      </trkpt>
      <trkpt lat="48.67243" lon="1.73627">
        <ele>157</ele>
        <time>2020-08-06T09:17:04Z</time>
      </trkpt>
      <trkpt lat="48.67251" lon="1.73653">
        <ele>152</ele>
        <time>2020-08-06T09:17:17Z</time>
      </trkpt>
      <trkpt lat="48.67248" lon="1.73681">
        <ele>156</ele>
        <time>2020-08-06T09:17:31Z</time>
      </trkpt>
      <trkpt lat="48.67248" lon="1.73709">
        <ele>158</ele>
        <time>2020-08-06T09:17:46Z</time>
      </trkpt>
      <trkpt lat="48.67249" lon="1.73737">
        <ele>156</ele>
        <time>2020-08-06T09:17:59Z</time>
      </trkpt>
      <trkpt lat="48.67253" lon="1.73764">
        <ele>151</ele>
        <time>2020-08-06T09:18:15Z</time>
      </trkpt>
      <trkpt lat="48.67257" lon="1.73791">
        <ele>150</ele>
        <time>2020-08-06T09:18:48Z</time>
      </trkpt>
    </trkseg>
  </trk>
</gpx>